createdAt,value
2023-04-19T00:00:12.261Z,5.82
2023-04-19T00:02:42.765Z,5.88
2023-04-19T00:05:12.030Z,5.97
2023-04-19T00:07:40.471Z,6.04
2023-04-19T00:10:09.717Z,6.09
2023-04-19T00:12:38.017Z,6.15
2023-04-19T00:15:08.561Z,6.18
2023-04-19T00:17:36.739Z,6.19
2023-04-19T00:20:05.633Z,6.19
2023-04-19T00:22:33.784Z,6.19
2023-04-19T00:25:02.272Z,6.22
2023-04-19T00:27:30.393Z,6.24
2023-04-19T00:29:58.530Z,6.26
2023-04-19T00:32:28.099Z,6.27
2023-04-19T00:34:56.254Z,6.28
2023-04-19T00:37:24.340Z,6.29
2023-04-19T00:39:52.429Z,6.29
2023-04-19T00:42:20.481Z,6.30
2023-04-19T00:44:48.600Z,6.30
2023-04-19T00:47:16.879Z,6.30
2023-04-19T00:49:46.406Z,6.30
2023-04-19T00:52:14.502Z,6.29
2023-04-19T00:54:44.456Z,6.27
2023-04-19T00:57:12.524Z,6.22
2023-04-19T00:59:41.186Z,6.17
2023-04-19T01:02:10.175Z,6.10
2023-04-19T01:04:38.551Z,6.05
2023-04-19T01:07:08.193Z,5.98
2023-04-19T01:09:36.446Z,5.95
2023-04-19T01:12:04.592Z,5.92
2023-04-19T01:14:32.687Z,5.90
2023-04-19T01:17:00.726Z,5.89
2023-04-19T01:19:28.878Z,5.88
2023-04-19T01:21:58.333Z,5.88
2023-04-19T01:24:27.788Z,5.87
2023-04-19T01:26:56.294Z,5.87
2023-04-19T01:29:24.373Z,5.88
2023-04-19T01:31:53.854Z,5.86
2023-04-19T01:34:23.177Z,5.84
2023-04-19T01:36:51.439Z,5.80
2023-04-19T01:39:19.677Z,5.77
2023-04-19T01:41:49.088Z,5.73
2023-04-19T01:44:17.338Z,5.70
2023-04-19T01:46:45.779Z,5.66
2023-04-19T01:49:13.936Z,5.64
2023-04-19T01:51:42.420Z,5.61
2023-04-19T01:54:10.526Z,5.58
2023-04-19T01:56:38.624Z,5.56
2023-04-19T01:59:08.070Z,5.51
2023-04-19T02:01:36.173Z,5.47
2023-04-19T02:04:04.816Z,5.43
2023-04-19T02:06:33.071Z,5.40
2023-04-19T02:09:01.203Z,5.39
2023-04-19T02:11:29.291Z,5.38
2023-04-19T02:13:57.366Z,5.39
2023-04-19T02:16:26.901Z,5.41
2023-04-19T02:18:55.105Z,5.42
2023-04-19T02:21:23.167Z,5.44
2023-04-19T02:23:51.286Z,5.46
2023-04-19T02:26:20.380Z,5.48
2023-04-19T02:28:48.432Z,5.50
2023-04-19T02:31:16.509Z,5.53
2023-04-19T02:33:47.176Z,5.55
2023-04-19T02:36:15.231Z,5.56
2023-04-19T02:38:43.699Z,5.58
2023-04-19T02:41:11.802Z,5.59
2023-04-19T02:43:39.894Z,5.62
2023-04-19T02:46:08.055Z,5.61
2023-04-19T02:48:36.172Z,5.61
2023-04-19T02:51:05.640Z,5.59
2023-04-19T02:53:33.712Z,5.59
2023-04-19T02:56:02.359Z,5.58
2023-04-19T02:58:30.435Z,5.58
2023-04-19T03:00:58.546Z,5.57
2023-04-19T03:03:26.800Z,5.55
2023-04-19T03:05:55.224Z,5.50
2023-04-19T03:08:24.685Z,5.46
2023-04-19T03:10:52.746Z,5.44
2023-04-19T03:13:20.844Z,5.46
2023-04-19T03:15:49.217Z,5.48
2023-04-19T03:18:18.010Z,5.51
2023-04-19T03:20:46.077Z,5.53
2023-04-19T03:23:14.144Z,5.54
2023-04-19T03:25:43.656Z,5.56
2023-04-19T03:28:11.694Z,5.57
2023-04-19T03:30:39.772Z,5.57
2023-04-19T03:33:07.893Z,5.58
2023-04-19T03:35:36.005Z,5.57
2023-04-19T03:38:04.147Z,5.55
2023-04-19T03:40:34.267Z,5.51
2023-04-19T03:43:03.724Z,5.52
2023-04-19T03:45:31.981Z,5.52
2023-04-19T03:48:02.177Z,5.54
2023-04-19T03:50:31.134Z,5.58
2023-04-19T03:52:59.206Z,5.65
2023-04-19T03:55:27.373Z,5.67
2023-04-19T03:57:55.502Z,5.68
2023-04-19T04:00:25.218Z,5.72
2023-04-19T04:02:53.465Z,5.77
2023-04-19T04:05:21.777Z,5.80
2023-04-19T04:07:49.873Z,5.83
2023-04-19T04:10:18.063Z,5.90
2023-04-19T04:12:46.121Z,5.98
2023-04-19T04:15:14.425Z,6.05
2023-04-19T04:17:43.887Z,6.10
2023-04-19T04:20:13.563Z,6.15
2023-04-19T04:22:43.278Z,6.23
2023-04-19T04:25:12.520Z,6.26
2023-04-19T04:27:40.604Z,6.30
2023-04-19T04:30:09.740Z,6.34
2023-04-19T04:32:38.364Z,6.38
2023-04-19T04:35:09.825Z,6.39
2023-04-19T04:37:38.141Z,6.42
2023-04-19T04:40:08.151Z,6.47
2023-04-19T04:42:37.781Z,6.52
2023-04-19T04:45:06.648Z,6.57
2023-04-19T04:47:35.471Z,6.65
2023-04-19T04:50:04.115Z,6.70
2023-04-19T04:52:33.534Z,6.76
2023-04-19T04:55:01.621Z,6.79
2023-04-19T04:57:29.656Z,6.86
2023-04-19T04:59:57.754Z,6.93
2023-04-19T05:02:26.305Z,6.99
2023-04-19T05:04:54.513Z,7.05
2023-04-19T05:07:22.622Z,7.12
2023-04-19T05:09:52.127Z,7.16
2023-04-19T05:12:20.167Z,7.23
2023-04-19T05:14:48.252Z,7.30
2023-04-19T05:17:16.319Z,7.36
2023-04-19T05:19:44.477Z,7.47
2023-04-19T05:22:12.601Z,7.56
2023-04-19T05:24:42.302Z,7.64
2023-04-19T05:27:12.310Z,7.74
2023-04-19T05:29:40.448Z,7.82
2023-04-19T05:32:08.729Z,7.93
2023-04-19T05:34:37.522Z,8.01
2023-04-19T05:37:06.632Z,8.09
2023-04-19T05:39:34.715Z,8.18
2023-04-19T05:42:02.962Z,8.31
2023-04-19T05:44:32.904Z,8.49
2023-04-19T05:47:01.252Z,8.77
2023-04-19T05:49:29.348Z,9.08
2023-04-19T05:51:57.420Z,9.34
2023-04-19T05:54:26.200Z,9.57
2023-04-19T05:56:54.273Z,9.75
2023-04-19T05:59:22.406Z,9.89
2023-04-19T06:01:52.756Z,10.07
2023-04-19T06:04:21.635Z,10.19
2023-04-19T06:06:50.180Z,10.23
2023-04-19T06:09:19.267Z,10.28
2023-04-19T06:11:51.216Z,10.34
2023-04-19T06:14:19.834Z,10.40
2023-04-19T06:16:48.124Z,10.56
2023-04-19T06:19:17.702Z,10.70
2023-04-19T06:21:46.034Z,10.81
2023-04-19T06:24:14.343Z,10.83
2023-04-19T06:26:43.258Z,10.89
2023-04-19T06:29:11.386Z,11.04
2023-04-19T06:31:39.647Z,11.17
2023-04-19T06:34:07.789Z,11.32
2023-04-19T06:36:37.264Z,11.40
2023-04-19T06:39:05.469Z,11.44
2023-04-19T06:41:33.540Z,11.60
2023-04-19T06:44:01.656Z,11.70
2023-04-19T06:46:29.894Z,11.75
2023-04-19T06:48:58.040Z,11.83
2023-04-19T06:51:26.136Z,11.84
2023-04-19T06:53:55.615Z,11.99
2023-04-19T06:56:42.147Z,12.09
2023-04-19T06:59:10.278Z,12.14
2023-04-19T07:01:38.876Z,12.30
2023-04-19T07:04:07.688Z,12.46
2023-04-19T07:06:36.039Z,12.68
2023-04-19T07:09:06.502Z,12.83
2023-04-19T07:11:35.114Z,12.91
2023-04-19T07:14:03.322Z,13.00
2023-04-19T07:16:31.496Z,13.03
2023-04-19T07:18:59.840Z,13.10
2023-04-19T07:21:32.788Z,13.14
2023-04-19T07:24:00.967Z,13.27
2023-04-19T07:26:30.742Z,13.35
2023-04-19T07:28:58.851Z,13.36
2023-04-19T07:31:27.166Z,13.36
2023-04-19T07:33:55.689Z,13.30
2023-04-19T07:36:23.838Z,13.30
2023-04-19T07:38:52.236Z,13.30
2023-04-19T07:41:20.401Z,13.29
2023-04-19T07:43:49.815Z,13.27
2023-04-19T07:46:18.616Z,13.19
2023-04-19T07:48:47.328Z,13.23
2023-04-19T07:51:17.452Z,13.37
2023-04-19T07:53:45.592Z,13.49
2023-04-19T07:56:14.353Z,13.53
2023-04-19T07:58:43.025Z,13.67
2023-04-19T08:01:13.454Z,13.73
2023-04-19T08:03:42.242Z,13.84
2023-04-19T08:06:10.468Z,13.78
2023-04-19T08:08:38.537Z,13.88
2023-04-19T08:11:07.140Z,13.96
2023-04-19T08:13:35.982Z,14.15
2023-04-19T08:16:32.286Z,14.22
2023-04-19T08:18:53.583Z,14.17
2023-04-19T08:21:26.091Z,14.21
2023-04-19T08:23:59.319Z,14.27
2023-04-19T08:26:27.450Z,14.32
2023-04-19T08:28:55.519Z,14.41
2023-04-19T08:31:23.684Z,14.67
2023-04-19T08:33:53.241Z,14.84
2023-04-19T08:36:32.524Z,15.01
2023-04-19T08:39:10.055Z,15.05
2023-04-19T08:41:44.885Z,15.10
2023-04-19T08:44:15.877Z,15.17
2023-04-19T08:46:46.622Z,15.18
2023-04-19T08:49:16.329Z,15.14
2023-04-19T08:51:45.441Z,15.21
2023-04-19T08:54:13.882Z,15.16
2023-04-19T08:56:42.128Z,15.29
2023-04-19T08:59:18.070Z,15.52
2023-04-19T09:01:46.731Z,15.82
2023-04-19T09:04:35.678Z,16.17
2023-04-19T09:07:04.312Z,16.28
2023-04-19T09:09:40.759Z,16.42
2023-04-19T09:12:18.756Z,16.46
2023-04-19T09:15:00.669Z,16.43
2023-04-19T09:17:29.878Z,16.26
2023-04-19T09:19:59.804Z,16.03
2023-04-19T09:22:28.095Z,16.03
2023-04-19T09:27:29.998Z,15.91
2023-04-19T09:29:58.955Z,15.91
2023-04-19T09:32:28.251Z,16.03
2023-04-19T09:34:57.960Z,16.11
2023-04-19T09:37:51.328Z,16.23
2023-04-19T09:40:26.916Z,16.44
2023-04-19T09:43:08.872Z,16.48
2023-04-19T09:45:44.058Z,16.42
2023-04-19T09:48:13.088Z,16.32
2023-04-19T09:50:58.594Z,16.29
2023-04-19T09:53:34.278Z,16.30
2023-04-19T09:56:04.413Z,16.25
2023-04-19T10:01:14.155Z,16.32
2023-04-19T10:03:45.982Z,16.47
2023-04-19T10:06:39.968Z,16.51
2023-04-19T10:09:07.012Z,16.64
2023-04-19T10:11:40.061Z,16.65
2023-04-19T10:14:09.811Z,16.82
2023-04-19T10:16:39.358Z,17.06
2023-04-19T10:19:10.612Z,17.17
2023-04-19T10:21:39.568Z,17.17
2023-04-19T10:24:10.130Z,17.14
2023-04-19T10:27:11.380Z,17.22
2023-04-19T10:30:03.901Z,17.33
2023-04-19T10:32:39.708Z,17.54
2023-04-19T10:35:12.892Z,17.60
2023-04-19T10:37:42.956Z,17.65
2023-04-19T10:40:13.471Z,17.57
2023-04-19T10:43:16.091Z,17.40
2023-04-19T10:45:46.663Z,17.24
2023-04-19T10:48:44.103Z,17.38
2023-04-19T10:51:16.898Z,17.49
2023-04-19T10:53:49.687Z,17.50
2023-04-19T10:56:20.273Z,17.61
2023-04-19T10:59:15.166Z,17.47
2023-04-19T11:01:45.313Z,17.56
2023-04-19T11:04:14.774Z,17.59
2023-04-19T11:07:01.320Z,17.46
2023-04-19T11:09:31.716Z,17.54
2023-04-19T11:12:03.601Z,17.56
2023-04-19T11:14:36.233Z,17.62
2023-04-19T11:17:14.888Z,17.68
2023-04-19T11:19:44.701Z,17.66
2023-04-19T11:22:12.814Z,17.54
2023-04-19T11:24:47.025Z,17.36
2023-04-19T11:27:16.725Z,17.40
2023-04-19T11:29:44.934Z,17.43
2023-04-19T11:32:13.042Z,17.51
2023-04-19T11:34:41.790Z,17.52
2023-04-19T11:37:12.031Z,17.49
2023-04-19T11:39:47.361Z,17.40
2023-04-19T11:42:21.044Z,17.29
2023-04-19T11:44:52.841Z,17.42
2023-04-19T11:47:21.202Z,17.53
2023-04-19T11:49:49.283Z,17.42
2023-04-19T11:52:23.003Z,17.39
2023-04-19T11:54:52.298Z,17.34
2023-04-19T11:57:30.249Z,17.16
2023-04-19T12:00:11.934Z,17.15
2023-04-19T12:02:41.219Z,17.16
2023-04-19T12:05:11.576Z,16.94
2023-04-19T12:07:55.211Z,16.97
2023-04-19T12:10:23.494Z,17.20
2023-04-19T12:12:52.960Z,17.38
2023-04-19T12:15:23.083Z,17.48
2023-04-19T12:18:01.707Z,17.61
2023-04-19T12:20:31.577Z,17.67
2023-04-19T12:22:59.790Z,17.70
2023-04-19T12:25:31.709Z,17.75
2023-04-19T12:28:02.194Z,17.84
2023-04-19T12:30:30.561Z,17.88
2023-04-19T12:32:59.649Z,17.76
2023-04-19T12:35:28.492Z,17.75
2023-04-19T12:37:58.206Z,17.86
2023-04-19T12:40:27.686Z,17.92
2023-04-19T12:42:56.048Z,17.99
2023-04-19T12:45:25.580Z,18.12
2023-04-19T12:47:53.873Z,18.21
2023-04-19T12:50:22.203Z,18.34
2023-04-19T12:52:51.957Z,18.23
2023-04-19T12:55:20.126Z,18.15
2023-04-19T12:57:48.735Z,18.01
2023-04-19T13:00:17.497Z,17.91
2023-04-19T13:02:48.491Z,17.79
2023-04-19T13:05:16.910Z,17.70
2023-04-19T13:07:45.126Z,17.47
2023-04-19T13:10:13.525Z,17.36
2023-04-19T13:12:41.705Z,17.23
2023-04-19T13:15:11.075Z,17.22
2023-04-19T13:17:39.262Z,17.18
2023-04-19T13:20:10.568Z,17.11
2023-04-19T13:22:38.704Z,17.01
2023-04-19T13:25:07.615Z,16.97
2023-04-19T13:27:35.784Z,16.93
2023-04-19T13:30:04.080Z,16.96
2023-04-19T13:32:32.491Z,16.85
2023-04-19T13:35:00.628Z,16.57
2023-04-19T13:37:30.305Z,16.43
2023-04-19T13:40:10.728Z,16.37
2023-04-19T13:42:45.922Z,16.26
2023-04-19T13:45:14.339Z,16.20
2023-04-19T13:47:42.545Z,16.25
2023-04-19T13:50:11.052Z,16.28
2023-04-19T13:52:40.522Z,16.42
2023-04-19T13:55:09.276Z,16.57
2023-04-19T13:57:37.335Z,16.80
2023-04-19T14:00:06.542Z,16.92
2023-04-19T14:02:34.885Z,16.90
2023-04-19T14:05:04.570Z,16.88
2023-04-19T14:07:32.754Z,16.82
2023-04-19T14:10:02.258Z,16.63
2023-04-19T14:12:30.645Z,16.48
2023-04-19T14:14:58.819Z,16.26
2023-04-19T14:17:27.481Z,16.03
2023-04-19T14:19:56.222Z,15.94
2023-04-19T14:22:24.388Z,15.79
2023-04-19T14:24:52.499Z,15.78
2023-04-19T14:27:22.141Z,15.72
2023-04-19T14:29:50.235Z,15.73
2023-04-19T14:32:25.799Z,15.66
2023-04-19T14:34:55.923Z,15.48
2023-04-19T14:37:25.205Z,15.43
2023-04-19T14:39:53.328Z,15.46
2023-04-19T14:42:23.146Z,15.59
2023-04-19T14:44:52.721Z,15.58
2023-04-19T14:47:21.540Z,15.50
2023-04-19T14:49:49.957Z,15.53
2023-04-19T14:52:18.237Z,15.56
2023-04-19T14:54:46.395Z,15.63
2023-04-19T14:57:14.973Z,15.53
2023-04-19T14:59:44.458Z,15.35
2023-04-19T15:02:13.493Z,15.19
2023-04-19T15:04:42.357Z,15.13
2023-04-19T15:07:11.406Z,15.04
2023-04-19T15:09:40.308Z,14.98
2023-04-19T15:12:08.617Z,14.91
2023-04-19T15:14:36.954Z,14.83
2023-04-19T15:17:06.725Z,14.85
2023-04-19T15:19:34.833Z,14.83
2023-04-19T15:22:04.136Z,14.81
2023-04-19T15:24:32.889Z,14.71
2023-04-19T15:27:01.564Z,14.65
2023-04-19T15:29:29.742Z,14.56
2023-04-19T15:31:57.918Z,14.50
2023-04-19T15:34:27.380Z,14.42
2023-04-19T15:36:55.484Z,14.29
2023-04-19T15:39:23.563Z,14.13
2023-04-19T15:41:52.042Z,14.06
2023-04-19T15:44:20.174Z,14.06
2023-04-19T15:46:48.297Z,14.18
2023-04-19T15:49:16.761Z,14.35
2023-04-19T15:51:46.610Z,14.40
2023-04-19T15:54:15.775Z,14.30
2023-04-19T15:56:43.865Z,14.22
2023-04-19T15:59:12.007Z,14.25
2023-04-19T16:01:40.180Z,14.31
2023-04-19T16:04:08.392Z,14.44
2023-04-19T16:06:36.551Z,14.55
2023-04-19T16:09:06.545Z,14.59
2023-04-19T16:11:34.721Z,14.55
2023-04-19T16:14:02.883Z,14.44
2023-04-19T16:16:34.770Z,14.28
2023-04-19T16:19:03.028Z,14.12
2023-04-19T16:21:31.523Z,14.12
2023-04-19T16:24:00.769Z,14.17
2023-04-19T16:26:30.210Z,14.14
2023-04-19T16:28:59.232Z,13.98
2023-04-19T16:31:27.514Z,13.86
2023-04-19T16:33:55.682Z,13.74
2023-04-19T16:36:23.778Z,13.58
2023-04-19T16:38:51.896Z,13.40
2023-04-19T16:41:19.962Z,13.23
2023-04-19T16:43:49.371Z,13.16
2023-04-19T16:46:17.629Z,13.11
2023-04-19T16:48:45.796Z,13.16
2023-04-19T16:51:13.863Z,13.26
2023-04-19T16:53:42.800Z,13.22
2023-04-19T16:56:10.881Z,13.20
2023-04-19T16:58:39.000Z,13.18
2023-04-19T17:01:09.040Z,13.20
2023-04-19T17:03:37.352Z,13.25
2023-04-19T17:06:05.764Z,13.35
2023-04-19T17:08:33.983Z,13.43
2023-04-19T17:11:02.071Z,13.57
2023-04-19T17:13:30.599Z,13.56
2023-04-19T17:15:58.776Z,13.53
2023-04-19T17:18:28.306Z,13.44
2023-04-19T17:20:56.405Z,13.27
2023-04-19T17:23:24.541Z,13.02
2023-04-19T17:25:52.673Z,12.81
2023-04-19T17:28:20.731Z,12.65
2023-04-19T17:30:48.793Z,12.53
2023-04-19T17:33:16.864Z,12.42
2023-04-19T17:35:46.339Z,12.32
2023-04-19T17:38:14.418Z,12.23
2023-04-19T17:40:42.510Z,12.19
2023-04-19T17:43:11.291Z,12.12
2023-04-19T17:45:39.403Z,12.06
2023-04-19T17:48:07.696Z,12.02
2023-04-19T17:50:36.062Z,11.95
2023-04-19T17:53:05.521Z,11.90
2023-04-19T17:55:33.760Z,11.88
2023-04-19T17:58:02.105Z,11.88
2023-04-19T18:00:30.377Z,11.87
2023-04-19T18:02:58.715Z,11.86
2023-04-19T18:05:26.933Z,11.83
2023-04-19T18:07:55.134Z,11.81
2023-04-19T18:10:24.626Z,11.70
2023-04-19T18:12:53.751Z,11.61
2023-04-19T18:15:22.130Z,11.52
2023-04-19T18:17:50.240Z,11.43
2023-04-19T18:20:19.668Z,11.39
2023-04-19T18:22:49.826Z,11.32
2023-04-19T18:25:18.072Z,11.27
2023-04-19T18:27:49.339Z,11.20
2023-04-19T18:30:17.675Z,11.13
2023-04-19T18:32:45.804Z,11.07
2023-04-19T18:35:14.051Z,11.02
2023-04-19T18:37:42.172Z,10.98
2023-04-19T18:40:11.016Z,10.93
2023-04-19T18:42:39.105Z,10.90
2023-04-19T18:45:10.274Z,10.86
2023-04-19T18:47:38.426Z,10.83
2023-04-19T18:50:08.533Z,10.82
2023-04-19T18:52:37.215Z,10.78
2023-04-19T18:55:06.070Z,10.73
2023-04-19T18:57:37.837Z,10.65
2023-04-19T19:00:09.483Z,10.61
2023-04-19T19:02:40.879Z,10.56
2023-04-19T19:05:13.548Z,10.53
2023-04-19T19:07:42.472Z,10.47
2023-04-19T19:10:19.442Z,10.44
2023-04-19T19:12:50.097Z,10.41
2023-04-19T19:15:18.593Z,10.37
2023-04-19T19:17:51.245Z,10.32
2023-04-19T19:20:20.166Z,10.28
2023-04-19T19:22:48.496Z,10.23
2023-04-19T19:25:16.687Z,10.19
2023-04-19T19:28:02.919Z,10.13
2023-04-19T19:30:33.945Z,10.08
2023-04-19T19:33:04.806Z,10.02
2023-04-19T19:35:33.509Z,9.99
2023-04-19T19:38:02.844Z,9.93
2023-04-19T19:40:32.427Z,9.88
2023-04-19T19:43:01.311Z,9.82
2023-04-19T19:45:30.066Z,9.77
2023-04-19T19:47:59.605Z,9.73
2023-04-19T19:53:01.751Z,9.68
2023-04-19T19:55:30.336Z,9.65
2023-04-19T20:00:42.725Z,9.57
2023-04-19T20:03:13.716Z,9.57
2023-04-19T20:05:43.616Z,9.55
2023-04-19T20:08:13.265Z,9.54
2023-04-19T20:10:43.146Z,9.51
2023-04-19T20:13:12.961Z,9.50
2023-04-19T20:15:41.534Z,9.48
2023-04-19T20:18:09.659Z,9.44
2023-04-19T20:20:38.086Z,9.43
2023-04-19T20:23:07.646Z,9.40
2023-04-19T20:25:35.926Z,9.38
2023-04-19T20:28:04.788Z,9.37
2023-04-19T20:30:32.976Z,9.35
2023-04-19T20:33:01.217Z,9.33
2023-04-19T20:35:29.571Z,9.28
2023-04-19T20:38:02.460Z,9.25
2023-04-19T20:40:32.230Z,9.25
2023-04-19T20:43:00.361Z,9.24
2023-04-19T20:45:28.763Z,9.24
2023-04-19T20:47:58.412Z,9.22
2023-04-19T20:50:26.713Z,9.19
2023-04-19T20:52:54.829Z,9.13
2023-04-19T20:55:23.003Z,9.07
2023-04-19T20:57:52.461Z,9.02
2023-04-19T21:00:20.755Z,8.97
2023-04-19T21:02:49.584Z,8.90
2023-04-19T21:05:17.953Z,8.81
2023-04-19T21:07:46.143Z,8.74
2023-04-19T21:10:16.358Z,8.69
2023-04-19T21:12:44.653Z,8.64
2023-04-19T21:15:14.285Z,8.60
2023-04-19T21:17:42.474Z,8.53
2023-04-19T21:20:14.139Z,8.48
2023-04-19T21:22:42.795Z,8.48
2023-04-19T21:25:12.299Z,8.51
2023-04-19T21:27:41.557Z,8.51
2023-04-19T21:30:11.058Z,8.54
2023-04-19T21:32:40.593Z,8.55
2023-04-19T21:35:09.359Z,8.59
2023-04-19T21:37:37.543Z,8.62
2023-04-19T21:40:06.615Z,8.66
2023-04-19T21:42:34.782Z,8.70
2023-04-19T21:45:03.040Z,8.75
2023-04-19T21:47:31.856Z,8.78
2023-04-19T21:50:01.481Z,8.80
2023-04-19T21:52:29.652Z,8.84
2023-04-19T21:54:57.751Z,8.84
2023-04-19T21:57:27.092Z,8.89
2023-04-19T21:59:55.408Z,8.93
2023-04-19T22:02:23.895Z,8.94
2023-04-19T22:04:52.722Z,8.97
2023-04-19T22:07:23.852Z,9.01
2023-04-19T22:09:52.304Z,9.06
2023-04-19T22:12:20.464Z,9.09
2023-04-19T22:14:48.613Z,9.13
2023-04-19T22:17:18.505Z,9.17
2023-04-19T22:19:46.790Z,9.19
2023-04-19T22:22:14.986Z,9.22
2023-04-19T22:24:56.823Z,9.25
2023-04-19T22:27:26.163Z,9.28
2023-04-19T22:29:54.407Z,9.30
2023-04-19T22:32:22.725Z,9.32
2023-04-19T22:34:51.032Z,9.33
2023-04-19T22:37:19.523Z,9.30
2023-04-19T22:39:49.217Z,9.31
2023-04-19T22:42:17.297Z,9.31
2023-04-19T22:44:45.461Z,9.29
2023-04-19T22:47:14.411Z,9.28
2023-04-19T22:49:43.491Z,9.28
2023-04-19T22:52:12.741Z,9.29
2023-04-19T22:54:40.864Z,9.35
2023-04-19T22:57:11.164Z,9.41
2023-04-19T22:59:39.295Z,9.46
2023-04-19T23:02:07.403Z,9.49
2023-04-19T23:04:36.144Z,9.51
2023-04-19T23:07:04.925Z,9.54
2023-04-19T23:09:33.103Z,9.56
2023-04-19T23:12:02.045Z,9.61
2023-04-19T23:14:31.500Z,9.67
2023-04-19T23:17:00.629Z,9.69
2023-04-19T23:19:28.732Z,9.71
2023-04-19T23:21:56.872Z,9.73
2023-04-19T23:24:25.086Z,9.73
2023-04-19T23:26:53.178Z,9.70
2023-04-19T23:29:21.350Z,9.67
2023-04-19T23:31:50.981Z,9.64
2023-04-19T23:34:19.155Z,9.59
2023-04-19T23:36:47.288Z,9.56
2023-04-19T23:39:16.310Z,9.52
2023-04-19T23:41:44.626Z,9.48
2023-04-19T23:44:12.703Z,9.43
2023-04-19T23:46:40.886Z,9.38
2023-04-19T23:49:10.505Z,9.37
2023-04-19T23:51:38.601Z,9.33
2023-04-19T23:54:06.835Z,9.29
2023-04-19T23:56:34.933Z,9.29
2023-04-19T23:59:03.182Z,9.23
